Time;durP1;ratioP1;P1;durP2;ratioP2;P2;SDS_P1;SDS_P2;PMS_P1;PMS_P2;Temp;Humidity;BMP_temperature;BMP_pressure;BME280_temperature;BME280_humidity;BME280_pressure;Samples;Min_cycle;Max_cycle;Signal;HPM_P1;HPM_P2
2020/12/27 00:01:28;;;;;;;2.22;1.35;;;;;;;22.05;41.59;94935.38;5045947;28;20021;-78
2020/12/27 00:03:54;;;;;;;2.47;1.48;;;;;;;22.04;41.67;94933.91;5046048;28;20553;-78
2020/12/27 00:06:25;;;;;;;2.40;1.20;;;;;;;21.99;41.67;94937.41;5043668;28;20047;-77
2020/12/27 00:08:51;;;;;;;1.90;1.30;;;;;;;21.97;41.30;94934.44;5062263;28;20048;-79
2020/12/27 00:11:16;;;;;;;1.98;1.20;;;;;;;21.98;41.68;94935.91;5048009;28;20071;-81
2020/12/27 00:13:42;;;;;;;1.95;1.38;;;;;;;21.96;41.00;94932.22;5031182;28;20029;-78
2020/12/27 00:16:07;;;;;;;1.98;1.60;;;;;;;21.92;41.54;94940.63;5049172;28;20017;-77
2020/12/27 00:18:33;;;;;;;2.50;1.30;;;;;;;21.91;41.60;94940.41;5048382;28;20044;-77
2020/12/27 00:20:58;;;;;;;1.95;1.20;;;;;;;21.92;41.96;94947.34;5047583;28;20016;-78
2020/12/27 00:23:24;;;;;;;2.10;1.50;;;;;;;21.91;41.73;94934.97;5044979;28;20390;-77
2020/12/27 00:25:49;;;;;;;2.42;1.48;;;;;;;21.90;41.65;94933.47;5043923;28;20025;-77
2020/12/27 00:28:14;;;;;;;1.80;1.30;;;;;;;21.87;41.82;94931.75;5044920;28;20013;-76
2020/12/27 00:30:40;;;;;;;2.88;1.55;;;;;;;21.88;41.75;94935.97;5045071;28;20020;-77
2020/12/27 00:33:05;;;;;;;2.38;1.48;;;;;;;21.86;41.78;94927.59;5044222;28;20059;-77
2020/12/27 00:35:31;;;;;;;1.92;1.23;;;;;;;21.84;41.83;94921.88;5043831;28;20017;-77
2020/12/27 00:37:56;;;;;;;2.90;1.40;;;;;;;21.81;41.93;94920.16;5043407;28;20021;-77
2020/12/27 00:40:21;;;;;;;1.80;1.20;;;;;;;21.80;41.99;94926.88;5042742;28;20417;-77
2020/12/27 00:42:47;;;;;;;2.58;1.40;;;;;;;21.79;41.82;94917.22;5044180;28;20037;-78
2020/12/27 00:45:12;;;;;;;1.67;1.20;;;;;;;21.79;41.93;94925.38;5045278;28;20025;-77
2020/12/27 00:47:38;;;;;;;1.83;1.33;;;;;;;21.75;41.44;94927.59;5044999;28;20033;-77
2020/12/27 00:50:03;;;;;;;1.70;1.15;;;;;;;21.75;41.90;94928.38;5044984;28;20024;-77
2020/12/27 00:52:29;;;;;;;1.92;1.20;;;;;;;21.75;41.96;94924.88;5044991;28;20032;-77
2020/12/27 00:54:54;;;;;;;1.80;1.10;;;;;;;21.74;41.81;94928.88;5042602;28;20037;-78
2020/12/27 00:57:20;;;;;;;2.25;1.48;;;;;;;21.73;41.97;94930.09;5042578;28;20028;-77
2020/12/27 00:59:45;;;;;;;2.25;1.33;;;;;;;21.69;41.86;94924.19;5043935;28;20040;-76
2020/12/27 01:02:10;;;;;;;2.85;1.50;;;;;;;21.68;41.75;94923.44;5044079;28;20409;-76
2020/12/27 01:04:36;;;;;;;1.77;1.30;;;;;;;21.70;42.01;94931.09;5043206;28;20021;-77
2020/12/27 01:07:01;;;;;;;2.30;1.48;;;;;;;21.63;41.99;94920.75;5042880;28;20555;-78
2020/12/27 01:09:30;;;;;;;2.22;1.40;;;;;;;21.67;41.69;94926.66;5042922;28;20401;-77
2020/12/27 01:11:55;;;;;;;2.30;1.00;;;;;;;21.65;42.04;94926.44;5044165;28;20537;-77
2020/12/27 01:15:11;;;;;;;2.00;1.10;;;;;;;21.65;41.97;94923.72;5046364;28;20028;-77
2020/12/27 01:17:39;;;;;;;1.88;1.20;;;;;;;21.63;41.99;94915.34;5043456;28;20033;-77
2020/12/27 01:20:04;;;;;;;2.15;1.40;;;;;;;21.63;42.04;94920.75;5043996;28;20036;-77
2020/12/27 01:22:33;;;;;;;2.10;1.20;;;;;;;21.62;41.92;94913.84;5045052;28;20422;-77
2020/12/27 01:24:59;;;;;;;1.75;1.10;;;;;;;21.61;42.12;94917.78;5043724;28;20040;-77
2020/12/27 01:27:24;;;;;;;1.60;1.20;;;;;;;21.60;41.95;94916.34;5043702;28;20025;-78
2020/12/27 01:29:50;;;;;;;1.77;1.27;;;;;;;21.55;42.02;94903.47;5042279;28;20025;-77
2020/12/27 01:32:15;;;;;;;1.83;1.15;;;;;;;21.58;42.08;94907.91;5042832;28;20025;-75
2020/12/27 01:34:41;;;;;;;1.73;1.27;;;;;;;21.57;42.13;94906.47;5043429;28;20025;-76
2020/12/27 01:37:06;;;;;;;1.88;1.10;;;;;;;21.57;42.15;94911.91;5043290;28;20032;-77
2020/12/27 01:39:32;;;;;;;1.75;1.17;;;;;;;21.56;42.03;94904.97;5041742;28;20025;-78
2020/12/27 01:41:57;;;;;;;1.65;1.15;;;;;;;21.55;42.02;94903.47;5043756;28;20033;-77
2020/12/27 01:44:22;;;;;;;2.10;1.40;;;;;;;21.53;42.03;94903.97;5043732;28;20017;-74
2020/12/27 01:46:48;;;;;;;1.45;1.00;;;;;;;21.45;41.71;94883.25;5024798;28;20036;-76
2020/12/27 01:49:13;;;;;;;1.88;1.20;;;;;;;21.49;42.20;94883.75;5043066;28;20061;-77
2020/12/27 01:51:39;;;;;;;1.80;1.15;;;;;;;21.51;42.22;94886.72;5025521;28;20029;-78
2020/12/27 01:54:05;;;;;;;1.85;1.20;;;;;;;21.51;42.13;94881.28;5044727;28;20111;-77
2020/12/27 01:56:37;;;;;;;2.00;1.20;;;;;;;21.50;42.20;94868.94;5041852;28;20041;-76
2020/12/27 01:59:04;;;;;;;2.38;1.63;;;;;;;21.50;42.14;94882.50;5042264;28;20544;-77
2020/12/27 02:01:31;;;;;;;2.20;1.30;;;;;;;21.45;42.28;94867.72;5043284;28;20036;-77
2020/12/27 02:03:56;;;;;;;1.77;1.30;;;;;;;21.46;42.13;94874.63;5024794;28;20032;-78
2020/12/27 02:06:22;;;;;;;2.03;1.25;;;;;;;21.47;42.21;94880.81;5024577;28;20033;-77
2020/12/27 02:08:48;;;;;;;2.15;1.40;;;;;;;21.46;42.18;94879.31;5040871;28;20040;-77
2020/12/27 02:11:14;;;;;;;2.03;1.20;;;;;;;21.45;42.21;94869.66;5042236;28;20032;-77
2020/12/27 02:13:50;;;;;;;1.95;1.20;;;;;;;21.44;41.92;94860.03;5041318;28;20037;-77
2020/12/27 02:16:20;;;;;;;2.03;1.17;;;;;;;21.45;42.32;94856.09;5025337;28;20017;-77
2020/12/27 02:18:46;;;;;;;2.05;1.10;;;;;;;21.41;42.39;94850.16;5041587;28;20036;-77
2020/12/27 02:21:11;;;;;;;1.85;1.20;;;;;;;21.43;42.22;94847.69;5042414;28;20021;-77
2020/12/27 02:23:37;;;;;;;1.63;1.10;;;;;;;21.41;42.24;94855.59;5042686;28;20622;-76
2020/12/27 02:26:03;;;;;;;2.00;1.30;;;;;;;21.41;42.29;94855.59;5058013;28;20105;-77
2020/12/27 02:28:29;;;;;;;1.92;1.48;;;;;;;21.39;42.13;94847.22;5024162;28;20033;-79
2020/12/27 02:30:54;;;;;;;1.77;1.23;;;;;;;21.39;42.19;94841.78;5042502;28;20060;-78
2020/12/27 02:33:20;;;;;;;1.63;1.10;;;;;;;21.40;42.23;94843.25;5046543;28;20086;-78
2020/12/27 02:35:45;;;;;;;1.67;1.20;;;;;;;21.39;42.26;94836.34;5046735;28;20083;-78
2020/12/27 02:38:11;;;;;;;2.05;1.00;;;;;;;21.38;42.32;94834.88;5059669;28;20041;-77
2020/12/27 02:40:36;;;;;;;2.20;1.50;;;;;;;21.38;42.41;94834.88;5045255;28;20033;-75
2020/12/27 02:43:01;;;;;;;2.13;1.48;;;;;;;21.35;42.28;94830.44;5041890;28;20017;-77
2020/12/27 02:45:27;;;;;;;2.25;1.30;;;;;;;21.37;42.38;94832.66;5043117;28;20055;-77
2020/12/27 02:47:52;;;;;;;2.00;1.13;;;;;;;21.34;42.34;94831.66;5057156;28;20037;-76
2020/12/27 02:50:18;;;;;;;2.00;1.33;;;;;;;21.35;42.26;94825.00;5043292;28;20056;-78
2020/12/27 02:52:43;;;;;;;2.58;1.10;;;;;;;21.31;42.53;94831.94;5047549;28;20024;-77
2020/12/27 02:55:08;;;;;;;1.95;1.02;;;;;;;21.33;42.28;94834.88;5046582;28;20028;-77
2020/12/27 02:57:34;;;;;;;1.90;1.27;;;;;;;21.33;42.20;94835.63;5046671;28;20409;-77
2020/12/27 03:00:00;;;;;;;2.28;1.40;;;;;;;21.27;42.31;94818.63;5046578;28;20041;-77
2020/12/27 03:02:25;;;;;;;2.30;1.27;;;;;;;21.31;42.22;94819.09;5044332;28;20036;-76
2020/12/27 03:04:50;;;;;;;1.80;1.10;;;;;;;21.29;42.43;94813.44;5044010;28;20880;-77
2020/12/27 03:07:16;;;;;;;1.92;1.20;;;;;;;21.26;42.30;94817.13;5044942;28;20045;-77
2020/12/27 03:09:41;;;;;;;1.63;1.20;;;;;;;21.29;42.20;94832.44;5046547;28;20021;-78
2020/12/27 03:12:07;;;;;;;2.22;1.10;;;;;;;21.29;42.41;94829.72;5045475;28;20029;-76
2020/12/27 03:14:32;;;;;;;2.03;1.20;;;;;;;21.30;42.44;94823.06;5046645;28;20504;-76
2020/12/27 03:16:58;;;;;;;1.98;1.00;;;;;;;21.23;42.24;94818.13;5045856;28;20028;-77
2020/12/27 03:19:23;;;;;;;2.45;1.50;;;;;;;21.27;42.42;94824.06;5046800;28;20078;-77
2020/12/27 03:21:48;;;;;;;1.65;1.17;;;;;;;21.23;42.01;94818.13;5062417;28;20037;-77
2020/12/27 03:24:14;;;;;;;2.75;1.10;;;;;;;21.17;42.34;94803.84;5044698;28;20024;-77
2020/12/27 03:26:39;;;;;;;1.52;1.00;;;;;;;21.26;42.33;94814.44;5046842;28;20955;-78
2020/12/27 03:29:05;;;;;;;1.88;1.25;;;;;;;21.23;42.62;94822.84;5046467;28;20020;-77
2020/12/27 03:31:30;;;;;;;1.73;1.20;;;;;;;21.24;42.49;94830.50;5045950;28;20029;-76
2020/12/27 03:33:55;;;;;;;2.58;1.45;;;;;;;21.21;42.57;94815.19;5047204;28;20055;-77
2020/12/27 03:36:21;;;;;;;1.60;1.00;;;;;;;21.22;42.57;94819.38;5046381;28;20024;-78
2020/12/27 03:38:51;;;;;;;2.17;1.15;;;;;;;21.22;42.38;94822.09;5045320;28;20063;-76
2020/12/27 03:41:16;;;;;;;;;;;;;;;21.23;42.46;94820.84;5045423;28;20047;-76
2020/12/27 03:43:42;;;;;;;1.70;1.07;;;;;;;21.11;42.48;94805.84;5046247;28;20299;-77
2020/12/27 03:46:07;;;;;;;2.55;1.40;;;;;;;21.21;42.42;94819.88;5046096;28;20286;-85
2020/12/27 03:48:32;;;;;;;1.90;1.30;;;;;;;21.21;42.60;94814.44;5060925;28;20373;-78
2020/12/27 03:50:58;;;;;;;1.90;1.10;;;;;;;21.23;42.71;94822.84;5046626;28;20029;-77
2020/12/27 03:53:23;;;;;;;1.60;1.00;;;;;;;21.26;42.55;94811.72;5045842;28;22866;-77
2020/12/27 03:55:49;;;;;;;2.15;1.00;;;;;;;21.28;42.56;94803.78;5044803;28;20033;-76
2020/12/27 03:58:15;;;;;;;2.22;1.20;;;;;;;21.34;42.59;94811.94;5044558;28;20489;-77
2020/12/27 04:00:40;;;;;;;1.73;1.10;;;;;;;21.37;42.63;94810.94;5045542;28;20032;-77
2020/12/27 04:03:09;;;;;;;1.50;1.02;;;;;;;21.41;42.56;94817.56;5045348;28;20448;-76
2020/12/27 04:05:34;;;;;;;1.73;1.08;;;;;;;21.42;42.20;94808.19;5044383;28;20028;-77
2020/12/27 04:08:00;;;;;;;1.83;1.17;;;;;;;21.48;42.31;94806.22;5045514;28;20513;-77
2020/12/27 04:10:25;;;;;;;1.55;0.98;;;;;;;21.41;42.45;94779.53;5045289;28;20501;-77
2020/12/27 04:12:51;;;;;;;2.22;1.00;;;;;;;21.54;42.16;94804.22;5043772;28;20041;-77
2020/12/27 04:15:16;;;;;;;1.73;1.10;;;;;;;21.57;41.81;94805.94;5043814;28;20036;-76
2020/12/27 04:17:41;;;;;;;2.03;1.20;;;;;;;21.57;41.99;94803.22;5044531;28;20028;-77
2020/12/27 04:20:07;;;;;;;1.63;1.20;;;;;;;21.63;42.19;94801.19;5044713;28;20029;-77
2020/12/27 04:22:32;;;;;;;2.63;1.20;;;;;;;21.66;41.92;94805.63;5045947;28;20029;-77
2020/12/27 04:24:58;;;;;;;2.05;1.10;;;;;;;21.68;42.02;94809.31;5044670;28;20040;-77
2020/12/27 04:27:23;;;;;;;1.70;1.05;;;;;;;21.71;42.08;94813.00;5044964;28;20025;-78
2020/12/27 04:29:48;;;;;;;2.20;1.27;;;;;;;21.69;42.14;94804.63;5044842;28;20033;-75
2020/12/27 04:32:14;;;;;;;2.50;1.65;;;;;;;21.76;42.09;94801.34;5042868;28;20029;-73
2020/12/27 04:34:39;;;;;;;2.08;1.10;;;;;;;21.78;41.73;94813.22;5046097;28;20033;-75
2020/12/27 04:37:07;;;;;;;2.05;1.30;;;;;;;21.81;41.81;94812.22;5045726;28;20029;-74
2020/12/27 04:39:32;;;;;;;2.28;1.40;;;;;;;21.85;41.76;94801.06;5042430;28;20119;-74
2020/12/27 04:41:58;;;;;;;2.08;1.20;;;;;;;21.92;41.72;94807.41;5041303;28;20025;-74
2020/12/27 04:44:23;;;;;;;3.35;1.17;;;;;;;21.95;41.65;94811.84;5024723;28;20032;-74
2020/12/27 04:46:48;;;;;;;1.50;1.02;;;;;;;21.95;41.71;94806.41;5041638;28;20742;-74
2020/12/27 04:49:14;;;;;;;1.70;1.17;;;;;;;21.98;41.63;94810.84;5058583;28;20425;-73
2020/12/27 04:51:39;;;;;;;2.05;1.17;;;;;;;22.00;41.57;94808.38;5058808;28;20040;-73
2020/12/27 04:54:05;;;;;;;2.20;1.30;;;;;;;22.04;41.60;94814.25;5057686;28;20429;-72
2020/12/27 04:56:30;;;;;;;2.10;1.15;;;;;;;22.04;41.63;94803.38;5043096;28;20402;-73
2020/12/27 04:58:56;;;;;;;2.15;1.20;;;;;;;22.07;41.64;94802.38;5042390;28;20029;-73
2020/12/27 05:01:21;;;;;;;2.92;1.20;;;;;;;22.08;41.63;94809.31;5042826;28;20489;-73
2020/12/27 05:03:49;;;;;;;1.75;1.25;;;;;;;22.07;41.49;94805.09;5042119;28;21187;-73
2020/12/27 05:06:15;;;;;;;2.13;1.48;;;;;;;22.11;41.50;94808.28;5040914;28;20037;-75
2020/12/27 05:08:43;;;;;;;1.83;1.23;;;;;;;22.13;41.35;94808.50;5039590;28;20425;-74
2020/12/27 05:11:08;;;;;;;2.25;1.20;;;;;;;22.14;41.52;94807.28;5042360;28;20040;-72
2020/12/27 05:13:34;;;;;;;1.90;1.10;;;;;;;22.13;41.43;94800.34;5040628;28;21570;-73
2020/12/27 05:16:03;;;;;;;1.83;1.20;;;;;;;22.15;41.34;94792.44;5041025;28;20029;-73
2020/12/27 05:18:29;;;;;;;1.75;1.20;;;;;;;22.16;41.39;94793.91;5041779;28;20119;-75
2020/12/27 05:20:54;;;;;;;2.05;1.27;;;;;;;22.20;41.33;94799.81;5025629;28;21071;-71
2020/12/27 10:09:18;;;;;;;2.30;1.63;;;;;;;25.79;34.81;94592.19;4881147;22;1063167;-74
2020/12/27 10:11:43;;;;;;;2.35;1.63;;;;;;;25.87;35.03;94614.88;5059657;28;20056;-78
2020/12/27 10:30:59;;;;;;;3.20;1.60;;;;;;;26.07;34.74;94597.69;3248980;22;20429;-77
2020/12/27 10:33:25;;;;;;;2.05;1.50;;;;;;;26.03;35.05;94583.59;5073659;28;20033;-76
2020/12/27 10:35:50;;;;;;;2.45;1.52;;;;;;;25.97;35.14;94577.53;5077588;28;20020;-76
2020/12/27 10:38:16;;;;;;;2.90;1.58;;;;;;;26.05;34.86;94580.34;5070184;28;20035;-76
2020/12/27 10:40:41;;;;;;;2.95;1.70;;;;;;;25.98;34.89;94565.34;5081482;28;20059;-76
2020/12/27 10:43:07;;;;;;;1.95;1.55;;;;;;;25.94;34.92;94567.66;5065290;28;20043;-76
2020/12/27 10:45:32;;;;;;;2.83;1.70;;;;;;;26.01;35.58;94572.47;5067313;28;20078;-76
2020/12/27 10:47:57;;;;;;;3.92;2.55;;;;;;;25.76;34.17;94548.03;5054997;28;20020;-77
2020/12/27 10:50:23;;;;;;;2.67;1.83;;;;;;;25.88;35.06;94561.59;5058108;28;20021;-76
2020/12/27 10:52:48;;;;;;;2.67;1.60;;;;;;;25.94;35.20;94548.50;5069153;28;21395;-75
2020/12/27 10:55:14;;;;;;;2.20;1.42;;;;;;;26.04;35.16;94533.09;5058410;28;20044;-74
2020/12/27 10:57:40;;;;;;;3.03;1.63;;;;;;;26.04;35.08;94530.34;5074413;28;20019;-75
2020/12/27 11:00:05;;;;;;;2.17;1.50;;;;;;;26.10;35.12;94517.25;5073989;28;20480;-77
2020/12/27 11:02:30;;;;;;;2.25;1.60;;;;;;;26.16;35.29;94515.09;5083694;28;20035;-75
2020/12/27 11:04:56;;;;;;;2.50;1.60;;;;;;;26.09;35.47;94504.81;5083635;28;20012;-77
2020/12/27 11:07:21;;;;;;;2.75;2.05;;;;;;;26.16;35.28;94515.09;5064844;28;20024;-77
2020/12/27 11:09:47;;;;;;;3.50;1.88;;;;;;;25.97;34.75;94509.13;5067056;28;20381;-77
2020/12/27 11:12:48;;;;;;;2.97;1.70;;;;;;;26.08;35.39;94503.34;5081056;28;20500;-75
2020/12/27 11:15:15;;;;;;;2.88;1.65;;;;;;;26.12;35.24;94495.53;5067882;28;20064;-76
2020/12/27 11:17:42;;;;;;;2.53;1.65;;;;;;;26.16;35.46;94486.97;5069197;28;20492;-76
2020/12/27 11:20:08;;;;;;;2.35;1.80;;;;;;;26.06;35.46;94478.53;5068964;28;20025;-76
2020/12/27 11:22:36;;;;;;;3.92;1.70;;;;;;;26.15;35.51;94475.31;5053360;28;20032;-76
2020/12/27 11:25:03;;;;;;;2.42;1.58;;;;;;;26.20;35.33;94470.94;5070694;28;20028;-76
2020/12/27 11:27:28;;;;;;;3.50;1.83;;;;;;;26.17;35.21;94470.00;5070717;28;20500;-76
2020/12/27 11:29:54;;;;;;;2.25;1.73;;;;;;;26.18;35.27;94457.78;5071680;28;20024;-76
2020/12/27 11:32:19;;;;;;;2.20;1.55;;;;;;;26.16;35.61;94449.41;5071438;28;20045;-76
2020/12/27 11:34:45;;;;;;;2.42;1.60;;;;;;;26.13;35.25;94439.53;5071841;28;20032;-77
2020/12/27 11:37:10;;;;;;;2.67;1.80;;;;;;;26.18;35.44;94419.47;5071669;28;20024;-75
2020/12/27 11:39:35;;;;;;;2.10;1.67;;;;;;;26.17;35.27;94423.47;5070568;28;20025;-78
2020/12/27 11:42:01;;;;;;;2.42;1.70;;;;;;;26.19;35.32;94420.94;5072258;28;20486;-77
2020/12/27 11:44:27;;;;;;;2.58;1.70;;;;;;;26.21;35.23;94417.66;5072406;28;20059;-76
2020/12/27 11:46:52;;;;;;;2.47;1.73;;;;;;;26.20;35.43;94418.94;5071953;28;20476;-79
2020/12/27 11:49:18;;;;;;;2.47;1.70;;;;;;;26.23;35.38;94399.41;5071449;28;20036;-76
2020/12/27 11:51:57;;;;;;;2.38;1.63;;;;;;;26.19;35.02;94388.09;5070094;28;20016;-77
2020/12/27 11:54:23;;;;;;;2.65;1.63;;;;;;;26.27;35.21;94390.88;5070035;28;20072;-75
2020/12/27 11:56:48;;;;;;;3.25;2.00;;;;;;;26.25;35.28;94390.66;5072033;28;20527;-76
2020/12/27 11:59:14;;;;;;;2.40;1.58;;;;;;;26.25;35.04;94385.94;5071324;28;20024;-75
2020/12/27 12:01:40;;;;;;;2.50;1.73;;;;;;;26.24;35.29;94384.47;5071238;28;20050;-75
2020/12/27 12:04:05;;;;;;;2.92;1.67;;;;;;;26.27;35.20;94366.94;5071287;28;20426;-77
2020/12/27 12:06:31;;;;;;;2.58;1.75;;;;;;;26.24;34.99;94368.03;5071512;28;20035;-77
2020/12/27 12:08:56;;;;;;;2.63;1.70;;;;;;;26.21;35.35;94366.38;5071511;28;20028;-75
2020/12/27 12:11:22;;;;;;;2.08;1.33;;;;;;;26.23;35.54;94354.91;5071202;28;20023;-75
2020/12/27 12:13:47;;;;;;;2.22;1.80;;;;;;;26.27;35.15;94356.00;5071247;28;20491;-77
2020/12/27 12:16:20;;;;;;;1.85;1.50;;;;;;;26.28;35.06;94352.03;5070709;28;20028;-76
2020/12/27 12:18:45;;;;;;;2.63;1.80;;;;;;;26.21;35.08;94347.22;5071835;28;20029;-76
2020/12/27 12:21:11;;;;;;;2.22;1.55;;;;;;;26.30;35.01;94360.41;5070997;28;20024;-76
2020/12/27 12:23:37;;;;;;;2.67;1.90;;;;;;;26.28;35.21;94358.22;5070330;28;20111;-75
2020/12/27 12:26:03;;;;;;;2.58;1.58;;;;;;;26.28;34.95;94360.25;5070331;28;20162;-75
2020/12/27 12:28:28;;;;;;;2.13;1.73;;;;;;;26.28;35.08;94354.75;5070932;28;20025;-75
2020/12/27 12:30:54;;;;;;;3.03;2.03;;;;;;;26.28;35.06;94341.06;5068459;28;20060;-76
2020/12/27 12:33:19;;;;;;;2.45;1.75;;;;;;;26.28;35.18;94332.88;5066497;28;20028;-75
2020/12/27 12:35:44;;;;;;;2.65;1.85;;;;;;;26.33;35.06;94331.94;5070115;28;20033;-77
2020/12/27 12:38:10;;;;;;;2.47;1.70;;;;;;;26.35;35.02;94340.34;5069194;28;20047;-76
2020/12/27 12:40:36;;;;;;;2.55;1.80;;;;;;;26.28;35.41;94319.19;5067434;28;20033;-75
2020/12/27 12:43:01;;;;;;;2.63;1.60;;;;;;;26.31;35.34;94331.78;5069936;28;20036;-75
2020/12/27 12:45:45;;;;;;;2.13;1.60;;;;;;;26.28;35.07;94319.19;5067973;28;20028;-72
2020/12/27 12:48:10;;;;;;;5.85;1.70;;;;;;;26.28;35.33;94308.22;5046919;28;20423;-70
2020/12/27 12:50:36;;;;;;;2.88;1.70;;;;;;;26.33;35.01;94305.28;5054112;28;20024;-70
2020/12/27 12:53:01;;;;;;;2.65;1.80;;;;;;;26.35;35.09;94318.44;5054123;28;20062;-71
2020/12/27 12:55:27;;;;;;;2.50;1.77;;;;;;;26.31;35.03;94301.66;5066108;28;20029;-71
2020/12/27 12:57:52;;;;;;;2.80;1.60;;;;;;;26.37;35.03;94313.16;5054293;28;20083;-71
2020/12/27 13:00:18;;;;;;;2.65;1.80;;;;;;;26.34;35.11;94323.19;5051359;28;20102;-74
2020/12/27 13:02:58;;;;;;;2.13;1.48;;;;;;;26.33;35.22;94316.25;5028815;28;20035;-74
2020/12/27 13:05:24;;;;;;;1.95;1.70;;;;;;;26.29;35.12;94315.16;4735977;28;20124;-75
2020/12/27 13:07:49;;;;;;;2.90;1.80;;;;;;;26.27;35.03;94306.72;5051881;28;20028;-73
2020/12/27 13:10:15;;;;;;;2.33;1.80;;;;;;;26.27;35.20;94312.19;5047370;28;20016;-73
2020/12/27 13:12:40;;;;;;;2.42;1.80;;;;;;;26.32;35.49;94303.09;5049747;28;20024;-74
2020/12/27 13:15:26;;;;;;;3.17;1.98;;;;;;;26.35;35.10;94302.00;5544598;22;20678;-80
2020/12/27 13:17:52;;;;;;;2.42;1.83;;;;;;;26.35;35.42;94310.22;5010319;28;20068;-82
2020/12/27 13:20:17;;;;;;;2.33;1.80;;;;;;;26.39;35.33;94302.38;5025472;28;20584;-80
2020/12/27 13:22:43;;;;;;;2.20;1.60;;;;;;;26.39;35.16;94296.91;5020120;28;20077;-73
2020/12/27 13:25:09;;;;;;;2.35;1.70;;;;;;;26.26;35.15;94283.34;5000317;28;20048;-71
2020/12/27 13:27:34;;;;;;;2.90;1.70;;;;;;;26.31;35.01;94290.72;5005096;28;20314;-72
2020/12/27 13:30:00;;;;;;;2.58;1.90;;;;;;;26.30;35.34;94272.81;5004889;28;20033;-72
2020/12/27 13:32:25;;;;;;;2.53;1.60;;;;;;;26.37;35.07;94285.78;5001307;28;20037;-72
2020/12/27 13:34:51;;;;;;;2.47;1.50;;;;;;;26.18;35.27;94268.94;5020134;28;20044;-73
2020/12/27 13:37:16;;;;;;;2.63;1.73;;;;;;;26.37;35.36;94288.53;5018992;28;20037;-73
2020/12/27 13:39:42;;;;;;;2.42;1.70;;;;;;;26.38;35.30;94300.91;5023176;28;20034;-77
2020/12/27 13:42:10;;;;;;;3.17;1.65;;;;;;;26.37;35.23;94289.25;5005760;28;20687;-75
2020/12/27 13:44:36;;;;;;;3.83;1.60;;;;;;;26.39;35.37;94288.69;5021258;28;20048;-75
2020/12/27 13:47:01;;;;;;;2.10;1.58;;;;;;;26.38;35.39;94279.00;5025275;28;20025;-75
2020/12/27 13:49:27;;;;;;;2.25;1.70;;;;;;;26.33;35.06;94277.19;5010111;28;20053;-75
2020/12/27 13:51:56;;;;;;;2.40;1.77;;;;;;;26.30;35.57;94294.72;5025803;28;20024;-75
2020/12/27 13:54:21;;;;;;;3.00;2.17;;;;;;;26.34;35.49;94273.19;5041732;28;20119;-74
2020/12/27 13:56:47;;;;;;;2.10;1.50;;;;;;;26.32;35.32;94251.09;4992059;28;20631;-74
2020/12/27 13:59:12;;;;;;;2.25;1.85;;;;;;;26.24;35.59;94258.53;5039187;28;20025;-73
2020/12/27 14:01:38;;;;;;;2.90;1.85;;;;;;;26.29;35.35;94249.44;5065473;28;20024;-73
2020/12/27 14:04:04;;;;;;;2.55;1.70;;;;;;;26.30;35.42;94261.88;5064997;28;20044;-74
2020/12/27 14:06:29;;;;;;;3.08;2.00;;;;;;;26.31;35.63;94263.34;5048138;28;20032;-74
2020/12/27 14:08:55;;;;;;;2.33;1.70;;;;;;;26.34;35.44;94262.25;5022183;28;20017;-75
2020/12/27 14:11:20;;;;;;;2.55;1.63;;;;;;;26.31;35.12;94257.84;5003808;28;20040;-75
2020/12/27 14:13:46;;;;;;;2.65;1.77;;;;;;;26.33;35.63;94271.72;5049748;28;20025;-75
2020/12/27 14:16:12;;;;;;;2.33;1.67;;;;;;;26.31;35.46;94266.06;5052025;28;20045;-75
2020/12/27 14:18:38;;;;;;;2.30;1.60;;;;;;;26.33;35.43;94247.09;5057448;28;20068;-71
2020/12/27 14:21:03;;;;;;;2.28;1.70;;;;;;;26.33;35.84;94260.78;5054616;28;20017;-74
2020/12/27 14:23:29;;;;;;;3.47;1.98;;;;;;;26.34;34.89;94252.00;5050665;28;20043;-78
2020/12/27 14:25:54;;;;;;;2.40;1.83;;;;;;;26.36;35.02;94235.03;5066696;28;20039;-72
2020/12/27 14:28:29;;;;;;;3.17;1.80;;;;;;;26.32;35.41;94231.91;5050979;28;20028;-77
2020/12/27 14:30:55;;;;;;;2.70;2.03;;;;;;;26.37;35.28;94228.28;4967031;28;20698;-77
2020/12/27 14:33:20;;;;;;;2.75;2.03;;;;;;;26.35;35.45;94225.34;5010854;28;20087;-73
2020/12/27 14:35:46;;;;;;;3.30;1.80;;;;;;;26.36;35.45;94215.88;5039232;28;20025;-73
2020/12/27 14:38:11;;;;;;;2.85;1.80;;;;;;;26.36;35.44;94235.03;5038980;28;20021;-73
2020/12/27 14:40:37;;;;;;;3.20;1.88;;;;;;;26.36;35.44;94232.31;5038362;28;20029;-73
2020/12/27 14:43:02;;;;;;;3.65;1.83;;;;;;;26.35;35.30;94236.31;5052244;28;20056;-73
2020/12/27 14:45:28;;;;;;;2.70;1.85;;;;;;;26.34;35.21;94223.91;5041953;28;20472;-74
2020/12/27 14:47:53;;;;;;;2.83;1.67;;;;;;;26.27;35.38;94213.66;5045378;28;20404;-75
2020/12/27 14:51:01;;;;;;;3.90;2.10;;;;;;;26.22;35.34;94187.19;5030745;28;20087;-73
2020/12/27 14:53:26;;;;;;;2.55;1.70;;;;;;;26.29;35.47;94208.38;5045784;28;20240;-72
2020/12/27 14:55:52;;;;;;;6.93;2.38;;;;;;;26.28;35.37;94198.72;5044647;28;20106;-73
2020/12/27 14:58:17;;;;;;;3.00;1.90;;;;;;;26.39;35.42;94187.41;5042670;28;20060;-72
2020/12/27 15:00:43;;;;;;;2.45;1.70;;;;;;;26.40;35.31;94205.28;5042767;28;20037;-72
2020/12/27 15:03:11;;;;;;;4.15;2.00;;;;;;;26.33;35.31;94203.28;5045472;28;20037;-75
2020/12/27 15:05:36;;;;;;;3.63;1.98;;;;;;;26.32;35.43;94186.13;5044206;28;20572;-73
2020/12/27 15:08:02;;;;;;;3.75;1.85;;;;;;;26.36;35.57;94183.03;5045172;28;20021;-72
2020/12/27 15:10:27;;;;;;;2.47;1.80;;;;;;;26.35;35.12;94195.25;5042885;28;20493;-71
2020/12/27 15:12:53;;;;;;;3.55;1.75;;;;;;;26.32;35.35;94190.84;5040908;28;20036;-69
2020/12/27 15:15:18;;;;;;;2.90;1.95;;;;;;;26.37;35.25;94184.50;5043491;28;20359;-72
2020/12/27 15:17:46;;;;;;;2.28;1.98;;;;;;;26.37;35.36;94173.53;5044649;28;20036;-73
2020/12/27 15:20:12;;;;;;;2.65;1.70;;;;;;;26.35;35.05;94165.13;5055425;28;20039;-74
2020/12/27 15:22:40;;;;;;;3.28;1.73;;;;;;;26.34;35.24;94169.16;5046096;28;20028;-72
2020/12/27 15:25:05;;;;;;;2.42;1.60;;;;;;;26.29;35.44;94178.25;5048430;28;20033;-69
2020/12/27 15:27:31;;;;;;;2.95;1.92;;;;;;;26.32;35.21;94207.28;5052355;28;20032;-73
2020/12/27 15:29:56;;;;;;;3.38;1.88;;;;;;;26.37;35.24;94189.97;5052809;28;20497;-73
2020/12/27 15:32:22;;;;;;;2.60;1.80;;;;;;;26.36;35.41;94191.22;5051758;28;20024;-72
2020/12/27 15:34:47;;;;;;;3.35;2.05;;;;;;;26.36;35.29;94188.50;5051626;28;20021;-71
2020/12/27 15:37:15;;;;;;;3.13;1.98;;;;;;;26.37;35.26;94173.53;5050734;28;20075;-72
2020/12/27 15:39:41;;;;;;;2.72;1.80;;;;;;;26.33;35.41;94167.69;5051105;28;20036;-73
2020/12/27 15:42:06;;;;;;;2.75;1.90;;;;;;;26.17;35.11;94136.09;5052345;28;20017;-72
2020/12/27 15:44:32;;;;;;;3.20;1.92;;;;;;;26.34;35.32;94152.72;5051920;28;20033;-73
2020/12/27 15:46:57;;;;;;;3.20;2.15;;;;;;;26.36;35.13;94155.63;5050980;28;20032;-70
2020/12/27 15:49:23;;;;;;;3.78;2.00;;;;;;;26.36;35.31;94158.38;5052462;28;20028;-73
2020/12/27 15:51:48;;;;;;;3.25;1.95;;;;;;;26.38;35.06;94153.06;5051305;28;20070;-74
2020/12/27 15:54:13;;;;;;;2.63;1.70;;;;;;;26.43;35.30;94172.06;5051621;28;20029;-75
2020/12/27 15:56:40;;;;;;;3.00;2.10;;;;;;;26.46;35.25;94178.47;5051993;28;20052;-76
2020/12/27 15:59:05;;;;;;;2.78;1.90;;;;;;;26.47;34.87;94177.16;5052344;28;20023;-76
2020/12/27 16:01:31;;;;;;;2.90;1.95;;;;;;;26.38;35.06;94153.06;5053046;28;20025;-83
2020/12/27 16:03:56;;;;;;;3.55;2.28;;;;;;;26.46;35.00;94172.97;5042089;28;20028;-75
2020/12/27 16:06:22;;;;;;;3.25;2.22;;;;;;;26.51;35.09;94183.72;5066733;28;20040;-75
2020/12/27 16:08:49;;;;;;;2.50;1.80;;;;;;;26.50;35.02;94170.59;5050782;28;20021;-74
2020/12/27 16:11:14;;;;;;;2.22;1.60;;;;;;;26.52;35.04;94173.53;5005977;28;20036;-74
2020/12/27 16:13:40;;;;;;;3.53;2.10;;;;;;;26.52;35.15;94173.53;5049758;28;20032;-72
2020/12/27 16:16:08;;;;;;;2.53;1.85;;;;;;;26.54;35.07;94168.94;5050578;28;20039;-73
2020/12/27 16:18:34;;;;;;;3.78;2.13;;;;;;;26.59;34.78;94173.50;5050397;28;20044;-73
2020/12/27 16:21:00;;;;;;;3.00;1.92;;;;;;;26.57;35.06;94164.38;5065965;28;20025;-74
2020/12/27 16:23:25;;;;;;;3.25;1.98;;;;;;;26.56;34.99;94157.44;5049410;28;20025;-74
2020/12/27 16:25:51;;;;;;;2.75;1.90;;;;;;;26.56;35.04;94151.94;5050568;28;20036;-74
2020/12/27 16:28:16;;;;;;;2.85;2.00;;;;;;;26.58;34.73;94155.59;5049693;28;20091;-74
2020/12/27 16:30:42;;;;;;;3.47;2.05;;;;;;;26.51;34.61;94144.66;5050648;28;20025;-74
2020/12/27 16:33:07;;;;;;;3.47;2.10;;;;;;;26.60;34.98;94157.78;5065815;28;20021;-72